createdAt,value
2018-11-29T00:00:57.092Z,1022.17
2018-11-29T00:02:48.852Z,1022.12
2018-11-29T00:03:48.757Z,1022.08
2018-11-29T00:05:40.505Z,1022.10
2018-11-29T00:06:40.430Z,1022.04
2018-11-29T00:08:32.223Z,1022.02
2018-11-29T00:09:32.108Z,1022.00
2018-11-29T00:11:23.855Z,1022.01
2018-11-29T00:12:23.792Z,1022.04
2018-11-29T00:14:15.545Z,1022.00
2018-11-29T00:15:15.464Z,1021.97
2018-11-29T00:17:07.200Z,1021.89
2018-11-29T00:18:07.120Z,1021.89
2018-11-29T00:19:58.887Z,1021.94
2018-11-29T00:20:58.799Z,1022.00
2018-11-29T00:22:50.573Z,1021.97
2018-11-29T00:23:50.492Z,1021.92
2018-11-29T00:25:42.281Z,1021.94
2018-11-29T00:26:42.190Z,1021.96
2018-11-29T00:28:33.949Z,1022.04
2018-11-29T00:29:33.876Z,1021.95
2018-11-29T00:31:25.596Z,1021.99
2018-11-29T00:32:25.568Z,1021.99
2018-11-29T00:34:17.282Z,1021.99
2018-11-29T00:35:17.189Z,1021.94
2018-11-29T00:37:08.973Z,1021.93
2018-11-29T00:38:08.863Z,1021.90
2018-11-29T00:40:00.665Z,1021.93
2018-11-29T00:41:00.565Z,1021.95
2018-11-29T00:42:52.314Z,1021.90
2018-11-29T00:43:52.229Z,1021.86
2018-11-29T00:45:44.012Z,1021.81
2018-11-29T00:46:43.932Z,1021.84
2018-11-29T00:48:35.681Z,1021.83
2018-11-29T00:49:35.627Z,1021.81
2018-11-29T00:51:27.371Z,1021.90
2018-11-29T00:52:27.291Z,1021.89
2018-11-29T00:54:19.071Z,1021.93
2018-11-29T00:55:18.971Z,1021.95
2018-11-29T00:57:10.723Z,1021.98
2018-11-29T00:58:10.651Z,1021.93
2018-11-29T01:00:02.466Z,1021.92
2018-11-29T01:01:02.359Z,1022.01
2018-11-29T01:02:54.367Z,1021.87
2018-11-29T01:03:54.023Z,1021.86
2018-11-29T01:05:45.773Z,1021.79
2018-11-29T01:06:45.717Z,1021.83
2018-11-29T01:08:37.426Z,1021.82
2018-11-29T01:09:37.355Z,1021.83
2018-11-29T01:11:29.117Z,1021.85
2018-11-29T01:12:29.008Z,1021.83
2018-11-29T01:14:20.797Z,1021.82
2018-11-29T01:15:20.727Z,1021.84
2018-11-29T01:17:12.499Z,1021.78
2018-11-29T01:18:12.417Z,1021.77
2018-11-29T01:20:04.258Z,1021.79
2018-11-29T01:21:04.171Z,1021.76
2018-11-29T01:22:55.900Z,1021.79
2018-11-29T01:23:55.823Z,1021.85
2018-11-29T01:25:47.596Z,1021.81
2018-11-29T01:26:47.490Z,1021.80
2018-11-29T01:28:39.306Z,1021.73
2018-11-29T01:29:39.205Z,1021.73
2018-11-29T01:31:30.974Z,1021.68
2018-11-29T01:32:30.881Z,1021.68
2018-11-29T01:34:23.630Z,1021.64
2018-11-29T01:35:24.300Z,1021.58
2018-11-29T01:37:15.312Z,1021.54
2018-11-29T01:38:15.221Z,1021.58
2018-11-29T01:40:06.980Z,1021.46
2018-11-29T01:41:06.879Z,1021.52
2018-11-29T01:42:58.697Z,1021.58
2018-11-29T01:43:58.575Z,1021.58
2018-11-29T01:45:50.370Z,1021.58
2018-11-29T01:46:50.251Z,1021.55
2018-11-29T01:48:42.000Z,1021.53
2018-11-29T01:49:41.933Z,1021.46
2018-11-29T01:51:33.694Z,1021.51
2018-11-29T01:52:33.600Z,1021.44
2018-11-29T01:54:25.339Z,1021.43
2018-11-29T01:55:25.256Z,1021.31
2018-11-29T01:57:17.014Z,1021.26
2018-11-29T01:58:16.965Z,1021.25
2018-11-29T02:00:08.685Z,1021.20
2018-11-29T02:01:08.603Z,1021.24
2018-11-29T02:03:00.384Z,1021.15
2018-11-29T02:04:00.430Z,1021.07
2018-11-29T02:05:52.062Z,1021.13
2018-11-29T02:06:51.979Z,1021.11
2018-11-29T02:08:43.705Z,1021.15
2018-11-29T02:09:43.637Z,1020.98
2018-11-29T02:11:35.374Z,1020.96
2018-11-29T02:12:35.287Z,1021.04
2018-11-29T02:14:27.040Z,1021.04
2018-11-29T02:15:26.951Z,1021.01
2018-11-29T02:17:18.753Z,1020.95
2018-11-29T02:18:18.639Z,1020.99
2018-11-29T02:20:10.432Z,1020.96
2018-11-29T02:21:10.344Z,1020.90
2018-11-29T02:23:02.090Z,1020.85
2018-11-29T02:24:02.050Z,1020.84
2018-11-29T02:25:53.746Z,1020.76
2018-11-29T02:26:53.680Z,1020.74
2018-11-29T02:28:45.421Z,1020.74
2018-11-29T02:29:45.337Z,1020.73
2018-11-29T02:31:37.136Z,1020.76
2018-11-29T02:32:37.002Z,1020.77
2018-11-29T02:34:28.786Z,1020.83
2018-11-29T02:35:28.703Z,1020.81
2018-11-29T02:37:20.465Z,1020.76
2018-11-29T02:38:20.378Z,1020.79
2018-11-29T02:40:12.138Z,1020.76
2018-11-29T02:41:12.058Z,1020.79
2018-11-29T02:43:03.800Z,1020.83
2018-11-29T02:44:03.723Z,1020.79
2018-11-29T02:45:55.441Z,1020.86
2018-11-29T02:46:55.367Z,1020.82
2018-11-29T02:48:47.168Z,1020.84
2018-11-29T02:49:47.055Z,1020.89
2018-11-29T02:51:38.850Z,1020.91
2018-11-29T02:52:38.747Z,1020.91
2018-11-29T02:54:30.545Z,1020.93
2018-11-29T02:55:30.445Z,1020.90
2018-11-29T02:57:22.174Z,1020.84
2018-11-29T02:58:22.110Z,1020.87
2018-11-29T03:00:13.854Z,1020.80
2018-11-29T03:01:13.768Z,1020.78
2018-11-29T03:03:05.516Z,1020.80
2018-11-29T03:04:05.427Z,1020.79
2018-11-29T03:05:57.193Z,1020.77
2018-11-29T03:06:57.102Z,1020.81
2018-11-29T03:08:48.853Z,1020.79
2018-11-29T03:09:48.756Z,1020.78
2018-11-29T03:11:40.523Z,1020.71
2018-11-29T03:12:40.466Z,1020.73
2018-11-29T03:14:32.228Z,1020.76
2018-11-29T03:15:32.141Z,1020.74
2018-11-29T03:17:23.879Z,1020.74
2018-11-29T03:18:23.807Z,1020.74
2018-11-29T03:20:15.567Z,1020.65
2018-11-29T03:21:15.471Z,1020.62
2018-11-29T03:23:07.260Z,1020.59
2018-11-29T03:24:07.155Z,1020.68
2018-11-29T03:25:58.950Z,1020.65
2018-11-29T03:26:58.861Z,1020.76
2018-11-29T03:28:50.631Z,1020.70
2018-11-29T03:29:50.542Z,1020.69
2018-11-29T03:31:42.309Z,1020.74
2018-11-29T03:32:42.217Z,1020.73
2018-11-29T03:34:34.121Z,1020.75
2018-11-29T03:35:34.002Z,1020.70
2018-11-29T03:37:25.736Z,1020.66
2018-11-29T03:38:25.665Z,1020.67
2018-11-29T03:40:17.414Z,1020.58
2018-11-29T03:41:17.318Z,1020.61
2018-11-29T03:43:09.085Z,1020.59
2018-11-29T03:44:08.997Z,1020.63
2018-11-29T03:46:00.785Z,1020.62
2018-11-29T03:47:00.700Z,1020.64
2018-11-29T03:48:52.431Z,1020.67
2018-11-29T03:49:52.329Z,1020.72
2018-11-29T03:51:44.096Z,1020.70
2018-11-29T03:52:44.008Z,1020.73
2018-11-29T03:54:35.804Z,1020.72
2018-11-29T03:55:35.671Z,1020.75
2018-11-29T03:57:27.446Z,1020.69
2018-11-29T03:58:27.372Z,1020.75
2018-11-29T04:00:19.137Z,1020.73
2018-11-29T04:01:19.047Z,1020.72
2018-11-29T04:03:10.834Z,1020.65
2018-11-29T04:04:10.762Z,1020.70
2018-11-29T04:06:02.534Z,1020.61
2018-11-29T04:07:02.505Z,1020.64
2018-11-29T04:08:54.215Z,1020.61
2018-11-29T04:09:54.149Z,1020.64
2018-11-29T04:11:45.940Z,1020.56
2018-11-29T04:12:45.856Z,1020.47
2018-11-29T04:14:37.646Z,1020.49
2018-11-29T04:15:37.559Z,1020.52
2018-11-29T04:17:29.338Z,1020.43
2018-11-29T04:18:29.242Z,1020.46
2018-11-29T04:20:21.055Z,1020.56
2018-11-29T04:21:20.971Z,1020.54
2018-11-29T04:23:12.707Z,1020.58
2018-11-29T04:24:12.645Z,1020.52
2018-11-29T04:26:04.390Z,1020.59
2018-11-29T04:27:04.303Z,1020.61
2018-11-29T04:28:56.062Z,1020.59
2018-11-29T04:29:55.968Z,1020.65
2018-11-29T04:31:47.757Z,1020.67
2018-11-29T04:32:47.649Z,1020.65
2018-11-29T04:34:39.421Z,1020.63
2018-11-29T04:35:39.339Z,1020.54
2018-11-29T04:37:31.120Z,1020.57
2018-11-29T04:38:31.055Z,1020.56
2018-11-29T04:40:22.792Z,1020.49
2018-11-29T04:41:22.828Z,1020.47
2018-11-29T04:43:14.487Z,1020.44
2018-11-29T04:44:14.396Z,1020.46
2018-11-29T04:46:06.151Z,1020.36
2018-11-29T04:47:06.063Z,1020.38
2018-11-29T04:48:57.818Z,1020.21
2018-11-29T04:49:57.731Z,1020.31
2018-11-29T04:51:49.517Z,1020.30
2018-11-29T04:52:49.408Z,1020.35
2018-11-29T04:54:41.205Z,1020.35
2018-11-29T04:55:41.143Z,1020.28
2018-11-29T04:57:32.934Z,1020.24
2018-11-29T04:58:32.857Z,1020.20
2018-11-29T05:00:24.604Z,1020.12
2018-11-29T05:01:24.511Z,1020.23
2018-11-29T05:03:16.302Z,1020.17
2018-11-29T05:04:16.219Z,1020.20
2018-11-29T05:06:07.998Z,1020.21
2018-11-29T05:07:07.917Z,1020.26
2018-11-29T05:08:59.698Z,1020.29
2018-11-29T05:09:59.589Z,1020.22
2018-11-29T05:11:51.391Z,1020.12
2018-11-29T05:12:51.302Z,1020.23
2018-11-29T05:14:43.069Z,1020.15
2018-11-29T05:15:42.985Z,1020.16
2018-11-29T05:17:34.762Z,1020.08
2018-11-29T05:18:34.677Z,1020.07
2018-11-29T05:20:26.421Z,1020.05
2018-11-29T05:21:26.348Z,1020.09
2018-11-29T05:23:18.178Z,1020.10
2018-11-29T05:24:18.031Z,1020.10
2018-11-29T05:26:09.852Z,1020.12
2018-11-29T05:27:09.758Z,1020.12
2018-11-29T05:29:01.505Z,1020.16
2018-11-29T05:30:01.417Z,1020.15
2018-11-29T05:31:53.161Z,1020.11
2018-11-29T05:32:53.064Z,1020.14
2018-11-29T05:34:44.836Z,1020.13
2018-11-29T05:35:44.744Z,1020.15
2018-11-29T05:37:36.512Z,1020.14
2018-11-29T05:38:36.416Z,1020.14
2018-11-29T05:40:28.213Z,1020.18
2018-11-29T05:41:28.113Z,1020.17
2018-11-29T05:43:19.866Z,1020.22
2018-11-29T05:44:19.780Z,1020.17
2018-11-29T05:46:11.569Z,1020.14
2018-11-29T05:47:11.497Z,1020.01
2018-11-29T05:49:03.297Z,1020.10
2018-11-29T05:50:03.182Z,1020.10
2018-11-29T05:51:54.975Z,1020.04
2018-11-29T05:52:54.886Z,1020.09
2018-11-29T05:54:46.641Z,1020.08
2018-11-29T05:55:46.559Z,1020.05
2018-11-29T05:57:38.385Z,1019.98
2018-11-29T05:58:38.290Z,1019.99
2018-11-29T06:00:30.069Z,1020.03
2018-11-29T06:01:29.976Z,1019.97
2018-11-29T06:03:21.767Z,1019.94
2018-11-29T06:04:21.637Z,1019.93
2018-11-29T06:06:13.402Z,1019.81
2018-11-29T06:07:13.303Z,1019.82
2018-11-29T06:09:05.077Z,1019.84
2018-11-29T06:10:05.007Z,1019.88
2018-11-29T06:11:56.738Z,1019.91
2018-11-29T06:12:56.659Z,1019.93
2018-11-29T06:14:48.429Z,1019.98
2018-11-29T06:15:48.317Z,1019.95
2018-11-29T06:17:40.112Z,1019.99
2018-11-29T06:18:40.004Z,1020.03
2018-11-29T06:20:31.797Z,1020.04
2018-11-29T06:21:31.690Z,1020.02
2018-11-29T06:23:23.450Z,1020.09
2018-11-29T06:24:23.410Z,1020.04
2018-11-29T06:26:15.183Z,1020.07
2018-11-29T06:27:15.088Z,1020.06
2018-11-29T06:29:06.862Z,1020.00
2018-11-29T06:30:06.761Z,1019.95
2018-11-29T06:31:58.502Z,1019.84
2018-11-29T06:32:58.428Z,1019.79
2018-11-29T06:34:50.202Z,1019.71
2018-11-29T06:35:50.106Z,1019.78
2018-11-29T06:37:41.883Z,1019.76
2018-11-29T06:38:41.800Z,1019.70
2018-11-29T06:40:33.598Z,1019.79
2018-11-29T06:41:33.498Z,1019.82
2018-11-29T06:43:25.295Z,1019.84
2018-11-29T06:44:25.220Z,1019.89
2018-11-29T06:46:16.964Z,1019.87
2018-11-29T06:47:16.870Z,1019.88
2018-11-29T06:49:08.695Z,1019.93
2018-11-29T06:50:08.580Z,1019.89
2018-11-29T06:52:00.339Z,1019.86
2018-11-29T06:53:00.255Z,1019.80
2018-11-29T06:54:52.170Z,1019.94
2018-11-29T06:55:51.962Z,1019.95
2018-11-29T06:57:43.687Z,1019.94
2018-11-29T06:58:43.613Z,1019.91
2018-11-29T07:00:35.437Z,1019.92
2018-11-29T07:01:35.311Z,1019.93
2018-11-29T07:03:28.933Z,1019.93
2018-11-29T07:04:27.004Z,1019.93
2018-11-29T07:06:18.767Z,1019.95
2018-11-29T07:07:18.668Z,1019.91
2018-11-29T07:09:10.481Z,1019.89
2018-11-29T07:10:10.374Z,1019.88
2018-11-29T07:12:02.155Z,1019.81
2018-11-29T07:13:02.106Z,1019.82
2018-11-29T07:14:53.859Z,1019.79
2018-11-29T07:15:53.763Z,1019.75
2018-11-29T07:17:45.545Z,1019.81
2018-11-29T07:18:45.452Z,1019.80
2018-11-29T07:20:37.190Z,1019.79
2018-11-29T07:21:37.111Z,1019.82
2018-11-29T07:23:28.895Z,1019.81
2018-11-29T07:24:28.838Z,1019.77
2018-11-29T07:26:20.594Z,1019.79
2018-11-29T07:27:20.490Z,1019.85
2018-11-29T07:29:16.742Z,1019.91
2018-11-29T07:30:12.173Z,1019.94
2018-11-29T07:32:03.933Z,1020.02
2018-11-29T07:33:03.868Z,1020.01
2018-11-29T07:34:55.665Z,1019.98
2018-11-29T07:35:55.551Z,1019.98
2018-11-29T07:37:47.344Z,1019.99
2018-11-29T07:38:47.270Z,1019.91
2018-11-29T07:40:39.021Z,1019.87
2018-11-29T07:41:38.930Z,1019.92
2018-11-29T07:43:30.692Z,1019.85
2018-11-29T07:44:30.614Z,1019.87
2018-11-29T07:46:22.362Z,1019.83
2018-11-29T07:47:22.304Z,1019.75
2018-11-29T07:49:14.057Z,1019.78
2018-11-29T07:50:13.988Z,1019.74
2018-11-29T07:52:05.772Z,1019.73
2018-11-29T07:53:05.643Z,1019.70
2018-11-29T07:54:57.427Z,1019.67
2018-11-29T07:55:57.339Z,1019.65
2018-11-29T07:57:49.138Z,1019.60
2018-11-29T07:58:51.595Z,1019.60
2018-11-29T08:00:40.852Z,1019.67
2018-11-29T08:01:40.750Z,1019.65
2018-11-29T08:03:32.541Z,1019.64
2018-11-29T08:04:32.437Z,1019.62
2018-11-29T08:06:24.203Z,1019.59
2018-11-29T08:07:24.148Z,1019.70
2018-11-29T08:09:15.878Z,1019.67
2018-11-29T08:10:15.807Z,1019.64
2018-11-29T08:12:07.638Z,1019.64
2018-11-29T08:13:07.511Z,1019.58
2018-11-29T08:14:59.232Z,1019.57
2018-11-29T08:15:59.160Z,1019.56
2018-11-29T08:17:51.082Z,1019.51
2018-11-29T08:18:50.957Z,1019.50
2018-11-29T08:20:42.722Z,1019.49
2018-11-29T08:21:42.634Z,1019.49
2018-11-29T08:23:34.430Z,1019.48
2018-11-29T08:24:34.319Z,1019.47
2018-11-29T08:26:26.116Z,1019.45
2018-11-29T08:27:26.000Z,1019.51
2018-11-29T08:29:17.772Z,1019.47
2018-11-29T08:30:17.691Z,1019.52
2018-11-29T08:32:09.459Z,1019.47
2018-11-29T08:33:09.386Z,1019.43
2018-11-29T08:35:01.137Z,1019.45
2018-11-29T08:36:01.058Z,1019.40
2018-11-29T08:37:52.875Z,1019.49
2018-11-29T08:38:52.772Z,1019.42
2018-11-29T08:40:44.553Z,1019.44
2018-11-29T08:41:44.445Z,1019.42
2018-11-29T08:43:36.220Z,1019.42
2018-11-29T08:44:36.138Z,1019.49
2018-11-29T08:46:27.886Z,1019.54
2018-11-29T08:47:27.824Z,1019.60
2018-11-29T08:49:19.622Z,1019.41
2018-11-29T08:50:19.495Z,1019.47
2018-11-29T08:52:11.274Z,1019.40
2018-11-29T08:53:11.188Z,1019.41
2018-11-29T08:55:03.007Z,1019.44
2018-11-29T08:56:02.921Z,1019.45
2018-11-29T08:57:54.724Z,1019.49
2018-11-29T08:58:54.628Z,1019.37
2018-11-29T09:00:46.386Z,1019.32
2018-11-29T09:01:46.316Z,1019.26
2018-11-29T09:03:38.143Z,1019.33
2018-11-29T09:04:38.046Z,1019.30
2018-11-29T09:06:29.830Z,1019.29
2018-11-29T09:07:29.744Z,1019.29
2018-11-29T09:09:21.522Z,1019.31
2018-11-29T09:10:21.436Z,1019.37
2018-11-29T09:12:13.184Z,1019.24
2018-11-29T09:13:13.103Z,1019.26
2018-11-29T09:15:04.879Z,1019.31
2018-11-29T09:16:04.798Z,1019.28
2018-11-29T09:17:56.550Z,1019.25
2018-11-29T09:18:56.458Z,1019.32
2018-11-29T09:20:48.260Z,1019.27
2018-11-29T09:21:48.180Z,1019.24
2018-11-29T09:23:39.940Z,1019.21
2018-11-29T09:24:39.843Z,1019.17
2018-11-29T09:26:31.645Z,1019.10
2018-11-29T09:27:31.589Z,1019.07
2018-11-29T09:29:23.391Z,1019.08
2018-11-29T09:30:23.290Z,1018.99
2018-11-29T09:32:15.034Z,1018.99
2018-11-29T09:33:14.961Z,1019.01
2018-11-29T09:35:06.734Z,1019.01
2018-11-29T09:36:06.651Z,1018.96
2018-11-29T09:37:58.976Z,1018.93
2018-11-29T09:38:58.842Z,1018.90
2018-11-29T09:40:50.652Z,1018.87
2018-11-29T09:41:50.561Z,1018.84
2018-11-29T09:43:42.343Z,1018.87
2018-11-29T09:44:42.254Z,1018.90
2018-11-29T09:46:34.044Z,1018.93
2018-11-29T09:47:33.945Z,1018.94
2018-11-29T09:49:25.723Z,1018.89
2018-11-29T09:50:25.632Z,1018.85
2018-11-29T09:52:17.392Z,1018.83
2018-11-29T09:53:17.321Z,1018.74
2018-11-29T09:55:09.088Z,1018.71
2018-11-29T09:56:09.025Z,1018.65
2018-11-29T09:58:00.778Z,1018.70
2018-11-29T09:59:00.692Z,1018.70
2018-11-29T10:00:52.443Z,1018.68
2018-11-29T10:01:52.350Z,1018.74
2018-11-29T10:03:44.133Z,1018.67
2018-11-29T10:04:44.058Z,1018.69
2018-11-29T10:06:35.861Z,1018.67
2018-11-29T10:07:35.792Z,1018.72
2018-11-29T10:09:27.583Z,1018.64
2018-11-29T10:10:27.469Z,1018.68
2018-11-29T10:12:19.172Z,1018.61
2018-11-29T10:13:19.100Z,1018.71
2018-11-29T10:15:11.003Z,1018.62
2018-11-29T10:16:10.888Z,1018.62
2018-11-29T10:18:02.693Z,1018.61
2018-11-29T10:19:02.643Z,1018.58
2018-11-29T10:20:54.419Z,1018.51
2018-11-29T10:21:54.319Z,1018.55
2018-11-29T10:23:46.182Z,1018.56
2018-11-29T10:24:46.069Z,1018.55
2018-11-29T10:26:37.919Z,1018.50
2018-11-29T10:27:37.793Z,1018.52
2018-11-29T10:29:29.639Z,1018.48
2018-11-29T10:30:29.564Z,1018.52
2018-11-29T10:32:21.354Z,1018.49
2018-11-29T10:33:21.277Z,1018.53
2018-11-29T10:35:13.041Z,1018.43
2018-11-29T10:36:12.981Z,1018.34
2018-11-29T10:38:04.747Z,1018.31
2018-11-29T10:39:04.714Z,1018.29
2018-11-29T10:40:56.478Z,1018.17
2018-11-29T10:41:56.415Z,1018.18
2018-11-29T10:43:48.191Z,1018.12
2018-11-29T10:44:48.141Z,1018.09
2018-11-29T10:46:39.863Z,1017.99
2018-11-29T10:47:39.800Z,1017.96
2018-11-29T10:49:31.595Z,1017.95
2018-11-29T10:50:31.511Z,1017.96
2018-11-29T10:52:23.256Z,1017.98
2018-11-29T10:53:23.168Z,1018.01
2018-11-29T10:55:14.977Z,1017.97
2018-11-29T10:56:14.908Z,1017.95
2018-11-29T10:58:06.708Z,1017.91
2018-11-29T10:59:06.600Z,1018.00
2018-11-29T11:00:58.430Z,1018.01
2018-11-29T11:01:58.320Z,1017.94
2018-11-29T11:03:50.094Z,1017.99
2018-11-29T11:04:50.024Z,1018.06
2018-11-29T11:06:41.801Z,1017.96
2018-11-29T11:07:41.690Z,1017.90
2018-11-29T11:09:33.463Z,1017.87
2018-11-29T11:10:33.382Z,1017.90
2018-11-29T11:12:25.146Z,1017.87
2018-11-29T11:13:25.063Z,1017.94
2018-11-29T11:15:16.844Z,1017.90
2018-11-29T11:16:16.774Z,1017.86
2018-11-29T11:18:08.552Z,1017.91
2018-11-29T11:19:08.514Z,1017.88
2018-11-29T11:21:00.266Z,1017.83
2018-11-29T11:22:00.165Z,1017.84
2018-11-29T11:23:51.954Z,1017.80
2018-11-29T11:24:51.902Z,1017.77
2018-11-29T11:26:43.638Z,1017.70
2018-11-29T11:27:43.570Z,1017.64
2018-11-29T11:29:35.345Z,1017.66
2018-11-29T11:30:35.253Z,1017.64
2018-11-29T11:32:27.094Z,1017.68
2018-11-29T11:33:26.973Z,1017.69
2018-11-29T11:35:18.722Z,1017.68
2018-11-29T11:36:18.654Z,1017.70
2018-11-29T11:38:10.420Z,1017.71
2018-11-29T11:39:10.392Z,1017.72
2018-11-29T11:41:02.124Z,1017.68
2018-11-29T11:42:02.088Z,1017.66
2018-11-29T11:43:53.829Z,1017.59
2018-11-29T11:44:53.894Z,1017.52
2018-11-29T11:46:45.539Z,1017.60
2018-11-29T11:47:45.434Z,1017.51
2018-11-29T11:49:37.346Z,1017.54
2018-11-29T11:50:37.212Z,1017.49
2018-11-29T11:52:29.173Z,1017.47
2018-11-29T11:53:29.064Z,1017.48
2018-11-29T11:55:20.896Z,1017.47
2018-11-29T11:56:20.777Z,1017.54
2018-11-29T11:58:12.601Z,1017.51
2018-11-29T11:59:12.489Z,1017.46
2018-11-29T12:01:04.383Z,1017.43
2018-11-29T12:02:04.200Z,1017.40
2018-11-29T12:03:56.007Z,1017.33
2018-11-29T12:04:55.972Z,1017.31
2018-11-29T12:06:47.701Z,1017.37
2018-11-29T12:07:47.576Z,1017.30
2018-11-29T12:09:39.468Z,1017.30
2018-11-29T12:10:39.387Z,1017.27
2018-11-29T12:12:31.197Z,1017.22
2018-11-29T12:13:31.116Z,1017.21
2018-11-29T12:15:23.041Z,1017.17
2018-11-29T12:16:22.899Z,1017.14
2018-11-29T12:18:15.007Z,1017.11
2018-11-29T12:19:14.642Z,1017.09
2018-11-29T12:21:06.447Z,1017.06
2018-11-29T12:22:06.438Z,1017.07
2018-11-29T12:23:58.273Z,1017.03
2018-11-29T12:24:58.135Z,1016.94
2018-11-29T12:26:49.927Z,1016.99
2018-11-29T12:27:49.865Z,1016.98
2018-11-29T12:29:41.620Z,1017.00
2018-11-29T12:30:41.589Z,1017.00
2018-11-29T12:34:12.541Z,1016.92
2018-11-29T12:35:12.468Z,1016.90
2018-11-29T12:37:04.218Z,1017.00
2018-11-29T12:38:04.161Z,1017.02
2018-11-29T12:39:56.005Z,1016.97
2018-11-29T12:40:55.911Z,1017.07
2018-11-29T12:42:47.658Z,1017.08
2018-11-29T12:43:47.579Z,1017.03
2018-11-29T12:45:39.337Z,1016.91
2018-11-29T12:46:39.251Z,1016.97
2018-11-29T12:48:31.010Z,1016.89
2018-11-29T12:49:30.965Z,1016.94
2018-11-29T12:51:22.702Z,1016.79
2018-11-29T12:52:22.623Z,1016.78
2018-11-29T12:54:14.399Z,1016.74
2018-11-29T12:55:14.286Z,1016.71
2018-11-29T12:57:06.102Z,1016.71
2018-11-29T12:58:06.005Z,1016.70
2018-11-29T12:59:57.759Z,1016.68
2018-11-29T13:00:57.676Z,1016.66
2018-11-29T13:02:49.450Z,1016.68
2018-11-29T13:03:49.365Z,1016.66
2018-11-29T13:05:41.173Z,1016.60
2018-11-29T13:06:41.100Z,1016.63
2018-11-29T13:08:32.865Z,1016.58
2018-11-29T13:09:32.787Z,1016.57
2018-11-29T13:11:24.581Z,1016.62
2018-11-29T13:12:24.490Z,1016.66
2018-11-29T13:14:16.429Z,1016.64
2018-11-29T13:15:16.364Z,1016.68
2018-11-29T13:17:08.020Z,1016.66
2018-11-29T13:18:07.949Z,1016.61
2018-11-29T13:19:59.833Z,1016.64
2018-11-29T13:20:59.735Z,1016.63
2018-11-29T13:22:51.487Z,1016.63
2018-11-29T13:23:51.396Z,1016.56
2018-11-29T13:25:43.206Z,1016.51
2018-11-29T13:26:43.099Z,1016.56
2018-11-29T13:28:34.907Z,1016.59
2018-11-29T13:29:34.874Z,1016.50
2018-11-29T13:31:26.594Z,1016.48
2018-11-29T13:32:26.511Z,1016.49
2018-11-29T13:34:18.445Z,1016.51
2018-11-29T13:35:18.381Z,1016.48
2018-11-29T13:37:10.139Z,1016.48
2018-11-29T13:38:10.085Z,1016.55
2018-11-29T13:40:01.884Z,1016.52
2018-11-29T13:41:01.807Z,1016.52
2018-11-29T13:42:53.628Z,1016.45
2018-11-29T13:43:53.513Z,1016.40
2018-11-29T13:45:45.295Z,1016.26
2018-11-29T13:46:45.200Z,1016.31
2018-11-29T13:48:36.986Z,1016.37
2018-11-29T13:49:36.896Z,1016.34
2018-11-29T13:51:28.679Z,1016.34
2018-11-29T13:52:28.587Z,1016.32
2018-11-29T13:54:20.398Z,1016.28
2018-11-29T13:55:20.298Z,1016.20
2018-11-29T13:57:12.072Z,1016.18
2018-11-29T13:58:11.984Z,1016.22
2018-11-29T14:00:03.744Z,1016.15
2018-11-29T14:01:03.675Z,1016.11
2018-11-29T14:02:55.441Z,1016.12
2018-11-29T14:03:55.352Z,1016.07
2018-11-29T14:05:47.133Z,1016.06
2018-11-29T14:06:47.038Z,1016.03
2018-11-29T14:08:38.827Z,1016.01
2018-11-29T14:09:38.738Z,1015.93
2018-11-29T14:11:30.476Z,1015.95
2018-11-29T14:12:30.375Z,1015.96
2018-11-29T14:14:22.156Z,1016.00
2018-11-29T14:15:22.048Z,1016.09
2018-11-29T14:17:13.823Z,1016.07
2018-11-29T14:18:13.739Z,1016.08
2018-11-29T14:20:05.559Z,1016.05
2018-11-29T14:21:05.424Z,1016.01
2018-11-29T14:22:57.228Z,1015.98
2018-11-29T14:23:57.193Z,1015.90
2018-11-29T14:25:48.903Z,1015.94
2018-11-29T14:26:48.826Z,1015.98
2018-11-29T14:28:40.590Z,1015.96
2018-11-29T14:29:40.494Z,1015.91
2018-11-29T14:31:32.278Z,1015.95
2018-11-29T14:32:32.174Z,1015.99
2018-11-29T14:34:23.947Z,1016.03
2018-11-29T14:35:23.893Z,1016.12
2018-11-29T14:37:15.696Z,1016.19
2018-11-29T14:38:15.557Z,1016.21
2018-11-29T14:40:07.330Z,1016.18
2018-11-29T14:41:07.254Z,1016.16
2018-11-29T14:42:59.019Z,1016.14
2018-11-29T14:43:58.921Z,1016.06
2018-11-29T14:45:50.686Z,1016.04
2018-11-29T14:46:50.602Z,1016.02
2018-11-29T14:48:42.400Z,1015.96
2018-11-29T14:49:42.300Z,1016.00
2018-11-29T14:51:34.142Z,1016.01
2018-11-29T14:52:33.963Z,1016.03
2018-11-29T14:54:25.730Z,1016.05
2018-11-29T14:55:25.644Z,1016.07
2018-11-29T14:57:17.477Z,1015.99
2018-11-29T14:58:19.673Z,1015.95
2018-11-29T15:00:09.181Z,1015.91
2018-11-29T15:01:09.109Z,1016.01
2018-11-29T15:03:00.888Z,1016.00
2018-11-29T15:04:00.786Z,1016.01
2018-11-29T15:05:52.562Z,1015.95
2018-11-29T15:06:52.468Z,1015.88
2018-11-29T15:08:44.222Z,1015.85
2018-11-29T15:09:44.136Z,1015.90
2018-11-29T15:11:35.889Z,1015.95
2018-11-29T15:12:35.818Z,1015.86
2018-11-29T15:14:27.608Z,1015.91
2018-11-29T15:15:27.510Z,1015.90
2018-11-29T15:17:19.298Z,1015.92
2018-11-29T15:18:19.171Z,1015.96
2018-11-29T15:20:10.948Z,1016.00
2018-11-29T15:21:10.860Z,1015.95
2018-11-29T15:23:02.677Z,1016.05
2018-11-29T15:24:02.573Z,1016.01
2018-11-29T15:25:54.330Z,1016.07
2018-11-29T15:26:54.255Z,1016.06
2018-11-29T15:28:46.044Z,1015.96
2018-11-29T15:29:45.930Z,1015.93
2018-11-29T15:31:37.950Z,1015.85
2018-11-29T15:32:37.877Z,1015.87
2018-11-29T15:34:29.630Z,1015.95
2018-11-29T15:35:29.568Z,1015.91
2018-11-29T15:37:21.284Z,1015.93
2018-11-29T15:38:21.212Z,1015.80
2018-11-29T15:40:13.072Z,1015.89
2018-11-29T15:41:18.045Z,1015.85
2018-11-29T15:43:04.775Z,1015.89
2018-11-29T15:44:04.695Z,1015.88
2018-11-29T15:45:56.431Z,1015.90
2018-11-29T15:46:56.385Z,1015.90
2018-11-29T15:48:48.164Z,1015.88
2018-11-29T15:49:48.054Z,1015.86
2018-11-29T15:51:39.846Z,1015.71
2018-11-29T15:52:39.741Z,1015.75
2018-11-29T15:54:31.498Z,1015.67
2018-11-29T15:55:31.408Z,1015.77
2018-11-29T15:57:23.167Z,1015.73
2018-11-29T15:58:23.083Z,1015.80
2018-11-29T16:00:14.862Z,1015.83
2018-11-29T16:01:14.749Z,1015.84
2018-11-29T16:03:06.519Z,1015.84
2018-11-29T16:04:06.460Z,1015.82
2018-11-29T16:05:58.198Z,1015.91
2018-11-29T16:06:58.134Z,1015.92
2018-11-29T16:08:49.871Z,1015.80
2018-11-29T16:09:49.794Z,1015.71
2018-11-29T16:11:41.593Z,1015.82
2018-11-29T16:12:41.502Z,1015.80
2018-11-29T16:14:33.280Z,1015.86
2018-11-29T16:15:33.215Z,1015.85
2018-11-29T16:17:24.954Z,1015.84
2018-11-29T16:18:24.903Z,1015.86
2018-11-29T16:20:17.198Z,1015.83
2018-11-29T16:21:16.571Z,1015.85
2018-11-29T16:23:08.417Z,1015.86
2018-11-29T16:24:08.345Z,1015.81
2018-11-29T16:26:00.105Z,1015.81
2018-11-29T16:27:00.011Z,1015.78
2018-11-29T16:28:51.776Z,1015.73
2018-11-29T16:29:51.673Z,1015.71
2018-11-29T16:31:43.456Z,1015.65
2018-11-29T16:32:43.372Z,1015.66
2018-11-29T16:34:35.114Z,1015.70
2018-11-29T16:35:35.044Z,1015.76
2018-11-29T16:37:26.818Z,1015.78
2018-11-29T16:38:26.720Z,1015.73
2018-11-29T16:40:18.515Z,1015.74
2018-11-29T16:41:18.449Z,1015.72
2018-11-29T16:43:10.405Z,1015.70
2018-11-29T16:44:10.279Z,1015.61
2018-11-29T16:46:02.034Z,1015.54
2018-11-29T16:47:01.929Z,1015.52
2018-11-29T16:48:53.743Z,1015.52
2018-11-29T16:49:53.664Z,1015.52
2018-11-29T16:51:45.451Z,1015.37
2018-11-29T16:52:45.360Z,1015.49
2018-11-29T16:54:37.127Z,1015.37
2018-11-29T16:55:37.025Z,1015.38
2018-11-29T16:57:28.808Z,1015.29
2018-11-29T16:58:28.729Z,1015.26
2018-11-29T17:00:20.536Z,1015.26
2018-11-29T17:01:20.417Z,1015.25
2018-11-29T17:03:12.360Z,1015.23
2018-11-29T17:04:12.089Z,1015.16
2018-11-29T17:06:03.873Z,1015.15
2018-11-29T17:07:03.771Z,1015.16
2018-11-29T17:08:55.564Z,1015.19
2018-11-29T17:09:55.484Z,1015.14
2018-11-29T17:11:47.405Z,1015.22
2018-11-29T17:12:47.279Z,1015.17
2018-11-29T17:14:39.030Z,1015.16
2018-11-29T17:15:38.955Z,1015.15
2018-11-29T17:17:30.707Z,1015.10
2018-11-29T17:18:30.617Z,1015.11
2018-11-29T17:20:22.373Z,1015.15